createdAt,value
2018-04-22T00:00:42.427Z,0.00
2018-04-22T00:01:42.438Z,0.00
2018-04-22T00:02:42.410Z,0.00
2018-04-22T00:03:42.392Z,0.00
2018-04-22T00:04:42.384Z,0.00
2018-04-22T00:05:42.372Z,0.00
2018-04-22T00:06:42.360Z,0.00
2018-04-22T00:07:42.370Z,0.00
2018-04-22T00:08:42.341Z,0.00
2018-04-22T00:09:42.329Z,0.00
2018-04-22T00:10:42.314Z,0.00
2018-04-22T00:11:42.304Z,0.00
2018-04-22T00:12:42.308Z,0.00
2018-04-22T00:13:42.281Z,0.00
2018-04-22T00:14:42.273Z,0.00
2018-04-22T00:15:42.273Z,0.00
2018-04-22T00:16:42.251Z,0.00
2018-04-22T00:17:42.234Z,0.00
2018-04-22T00:18:42.218Z,0.00
2018-04-22T00:19:42.220Z,0.00
2018-04-22T00:20:42.215Z,0.00
2018-04-22T00:21:42.184Z,0.00
2018-04-22T00:22:42.182Z,0.00
2018-04-22T00:23:42.162Z,0.00
2018-04-22T00:24:42.153Z,0.00
2018-04-22T00:25:42.163Z,0.00
2018-04-22T00:26:42.139Z,0.00
2018-04-22T00:27:42.131Z,0.00
2018-04-22T00:28:42.107Z,0.00
2018-04-22T00:29:42.093Z,0.00
2018-04-22T00:30:42.082Z,0.00
2018-04-22T00:31:42.079Z,0.00
2018-04-22T00:32:42.077Z,0.00
2018-04-22T00:33:42.057Z,0.00
2018-04-22T00:34:42.038Z,0.00
2018-04-22T00:35:42.062Z,0.00
2018-04-22T00:36:42.015Z,0.00
2018-04-22T00:37:42.006Z,0.00
2018-04-22T00:38:41.988Z,0.00
2018-04-22T00:39:41.978Z,0.00
2018-04-22T00:40:41.995Z,0.00
2018-04-22T00:41:41.954Z,0.00
2018-04-22T00:42:41.945Z,0.00
2018-04-22T00:43:41.926Z,0.00
2018-04-22T00:44:41.919Z,0.00
2018-04-22T00:45:41.929Z,0.00
2018-04-22T00:46:41.898Z,0.00
2018-04-22T00:47:41.906Z,0.00
2018-04-22T00:48:41.877Z,0.00
2018-04-22T00:49:41.870Z,0.00
2018-04-22T00:50:41.878Z,0.00
2018-04-22T00:51:41.841Z,0.00
2018-04-22T00:52:41.832Z,0.00
2018-04-22T00:53:41.818Z,0.00
2018-04-22T00:54:41.807Z,0.00
2018-04-22T00:55:41.794Z,0.00
2018-04-22T00:56:41.802Z,0.00
2018-04-22T00:57:41.772Z,0.00
2018-04-22T00:58:41.760Z,0.00
2018-04-22T00:59:41.749Z,0.00
2018-04-22T01:00:41.751Z,0.00
2018-04-22T01:01:41.736Z,0.00
2018-04-22T01:02:41.712Z,0.00
2018-04-22T01:03:41.701Z,0.00
2018-04-22T01:04:41.693Z,0.00
2018-04-22T01:05:41.676Z,0.00
2018-04-22T01:06:41.681Z,0.00
2018-04-22T01:07:41.649Z,0.00
2018-04-22T01:08:41.645Z,0.00
2018-04-22T01:09:41.628Z,0.00
2018-04-22T01:10:41.620Z,0.00
2018-04-22T01:11:41.623Z,0.00
2018-04-22T01:12:41.596Z,0.00
2018-04-22T01:13:41.585Z,0.00
2018-04-22T01:14:41.576Z,0.00
2018-04-22T01:15:41.563Z,0.00
2018-04-22T01:16:41.544Z,0.00
2018-04-22T01:17:41.558Z,0.00
2018-04-22T01:18:41.528Z,0.00
2018-04-22T01:19:41.514Z,0.00
2018-04-22T01:20:41.504Z,0.00
2018-04-22T01:21:41.487Z,0.00
2018-04-22T01:22:41.474Z,0.00
2018-04-22T01:23:41.481Z,0.00
2018-04-22T01:24:41.455Z,0.00
2018-04-22T01:25:41.443Z,0.00
2018-04-22T01:26:41.432Z,0.00
2018-04-22T01:27:41.419Z,0.00
2018-04-22T01:29:02.426Z,0.00
2018-04-22T01:29:41.396Z,0.00
2018-04-22T01:30:41.384Z,0.00
2018-04-22T01:31:41.374Z,0.00
2018-04-22T01:32:41.366Z,0.00
2018-04-22T01:33:41.368Z,0.00
2018-04-22T01:34:41.339Z,0.00
2018-04-22T01:35:41.326Z,0.00
2018-04-22T01:36:41.317Z,0.00
2018-04-22T01:37:41.308Z,0.00
2018-04-22T01:38:41.293Z,0.00
2018-04-22T01:39:41.299Z,0.00
2018-04-22T01:40:41.271Z,0.00
2018-04-22T01:41:41.273Z,0.00
2018-04-22T01:42:41.248Z,0.00
2018-04-22T01:43:41.238Z,0.00
2018-04-22T01:44:41.239Z,0.00
2018-04-22T01:45:41.210Z,0.00
2018-04-22T01:46:41.199Z,0.00
2018-04-22T01:47:41.193Z,0.00
2018-04-22T01:48:41.177Z,0.00
2018-04-22T01:49:41.175Z,0.00
2018-04-22T01:50:41.152Z,0.00
2018-04-22T01:51:41.139Z,0.00
2018-04-22T01:52:41.126Z,0.00
2018-04-22T01:53:41.111Z,0.00
2018-04-22T01:54:41.101Z,0.00
2018-04-22T01:55:41.107Z,0.00
2018-04-22T01:56:41.075Z,0.00
2018-04-22T01:57:41.065Z,0.00
2018-04-22T01:58:41.056Z,0.00
2018-04-22T01:59:41.051Z,0.00
2018-04-22T02:01:02.057Z,0.00
2018-04-22T02:01:41.017Z,0.00
2018-04-22T02:02:41.017Z,0.00
2018-04-22T02:03:40.994Z,0.00
2018-04-22T02:04:40.978Z,0.00
2018-04-22T02:05:40.974Z,0.00
2018-04-22T02:06:40.973Z,0.00
2018-04-22T02:07:40.942Z,0.00
2018-04-22T02:08:40.932Z,0.00
2018-04-22T02:09:40.931Z,0.00
2018-04-22T02:10:40.907Z,0.00
2018-04-22T02:11:40.895Z,0.00
2018-04-22T02:12:40.897Z,0.00
2018-04-22T02:13:40.870Z,0.00
2018-04-22T02:14:40.862Z,0.00
2018-04-22T02:15:40.849Z,0.00
2018-04-22T02:16:40.852Z,0.00
2018-04-22T02:17:40.826Z,0.00
2018-04-22T02:18:40.809Z,0.00
2018-04-22T02:19:40.819Z,0.00
2018-04-22T02:20:40.836Z,0.00
2018-04-22T02:21:40.776Z,0.00
2018-04-22T02:22:40.764Z,0.00
2018-04-22T02:23:40.759Z,0.00
2018-04-22T02:24:40.740Z,0.00
2018-04-22T02:25:40.742Z,0.00
2018-04-22T02:26:40.718Z,0.00
2018-04-22T02:27:40.697Z,0.00
2018-04-22T02:28:40.685Z,0.00
2018-04-22T02:29:40.689Z,0.00
2018-04-22T02:30:40.669Z,0.00
2018-04-22T02:31:40.655Z,0.00
2018-04-22T02:32:40.650Z,0.00
2018-04-22T02:33:40.654Z,0.00
2018-04-22T02:34:40.616Z,0.00
2018-04-22T02:35:40.618Z,0.00
2018-04-22T02:36:40.597Z,0.00
2018-04-22T02:37:40.587Z,0.00
2018-04-22T02:38:40.575Z,0.00
2018-04-22T02:39:40.582Z,0.00
2018-04-22T02:40:40.544Z,0.00
2018-04-22T02:41:40.533Z,0.00
2018-04-22T02:42:40.519Z,0.00
2018-04-22T02:43:40.510Z,0.00
2018-04-22T02:44:40.500Z,0.00
2018-04-22T02:45:40.504Z,0.00
2018-04-22T02:46:40.478Z,0.00
2018-04-22T02:47:40.461Z,0.00
2018-04-22T02:48:40.448Z,0.00
2018-04-22T02:49:40.436Z,0.00
2018-04-22T02:50:40.446Z,0.00
2018-04-22T02:51:40.435Z,0.00
2018-04-22T02:52:40.398Z,0.00
2018-04-22T02:53:40.388Z,0.00
2018-04-22T02:54:40.391Z,0.00
2018-04-22T02:55:40.363Z,0.00
2018-04-22T02:56:40.351Z,0.00
2018-04-22T02:57:40.351Z,0.00
2018-04-22T02:58:40.323Z,0.00
2018-04-22T02:59:40.316Z,0.00
2018-04-22T03:00:40.298Z,0.00
2018-04-22T03:01:40.287Z,0.00
2018-04-22T03:02:40.287Z,0.00
2018-04-22T03:03:40.263Z,0.00
2018-04-22T03:04:40.249Z,0.00
2018-04-22T03:05:40.236Z,0.00
2018-04-22T03:06:40.222Z,0.00
2018-04-22T03:07:40.213Z,0.00
2018-04-22T03:08:40.230Z,0.00
2018-04-22T03:09:40.188Z,0.00
2018-04-22T03:10:40.175Z,0.00
2018-04-22T03:11:40.163Z,0.00
2018-04-22T03:12:40.160Z,0.00
2018-04-22T03:13:40.173Z,0.00
2018-04-22T03:14:40.130Z,0.00
2018-04-22T03:15:40.115Z,0.00
2018-04-22T03:16:40.106Z,0.00
2018-04-22T03:17:40.096Z,0.00
2018-04-22T03:18:40.071Z,0.00
2018-04-22T03:19:40.089Z,0.00
2018-04-22T03:20:40.056Z,0.00
2018-04-22T03:21:40.045Z,0.00
2018-04-22T03:22:40.028Z,0.00
2018-04-22T03:23:40.016Z,0.00
2018-04-22T03:24:40.008Z,0.00
2018-04-22T03:25:40.012Z,0.00
2018-04-22T03:26:39.979Z,0.00
2018-04-22T03:27:39.983Z,0.00
2018-04-22T03:28:39.960Z,0.00
2018-04-22T03:29:39.954Z,0.00
2018-04-22T03:30:39.931Z,0.00
2018-04-22T03:31:39.924Z,0.00
2018-04-22T03:32:39.906Z,0.00
2018-04-22T03:33:39.894Z,0.00
2018-04-22T03:34:39.896Z,0.00
2018-04-22T03:35:39.886Z,0.00
2018-04-22T03:36:39.859Z,0.00
2018-04-22T03:37:39.840Z,0.00
2018-04-22T03:38:39.835Z,0.00
2018-04-22T03:39:39.832Z,0.00
2018-04-22T03:40:39.812Z,0.00
2018-04-22T03:41:39.814Z,0.00
2018-04-22T03:42:39.787Z,0.00
2018-04-22T03:43:39.772Z,0.00
2018-04-22T03:44:39.756Z,0.00
2018-04-22T03:45:39.745Z,0.00
2018-04-22T03:46:39.734Z,0.00
2018-04-22T03:48:00.731Z,0.00
2018-04-22T03:48:39.709Z,0.00
2018-04-22T03:49:39.700Z,0.00
2018-04-22T03:50:39.681Z,0.00
2018-04-22T03:51:39.672Z,0.00
2018-04-22T03:52:39.677Z,0.00
2018-04-22T03:53:39.660Z,0.00
2018-04-22T03:54:39.637Z,0.00
2018-04-22T03:55:39.618Z,0.00
2018-04-22T03:56:39.608Z,0.00
2018-04-22T03:57:39.597Z,0.00
2018-04-22T03:58:39.603Z,0.00
2018-04-22T03:59:39.572Z,0.00
2018-04-22T04:00:39.563Z,0.00
2018-04-22T04:01:39.552Z,0.00
2018-04-22T04:02:39.532Z,4.00
2018-04-22T04:03:39.537Z,4.00
2018-04-22T04:04:39.508Z,0.00
2018-04-22T04:05:39.497Z,4.00
2018-04-22T04:06:39.479Z,4.00
2018-04-22T04:07:39.476Z,4.00
2018-04-22T04:08:39.477Z,4.00
2018-04-22T04:09:39.448Z,4.00
2018-04-22T04:10:39.433Z,8.00
2018-04-22T04:11:39.431Z,4.00
2018-04-22T04:12:39.407Z,8.00
2018-04-22T04:13:39.420Z,4.00
2018-04-22T04:14:39.406Z,8.00
2018-04-22T04:15:39.372Z,8.00
2018-04-22T04:16:39.357Z,12.00
2018-04-22T04:17:39.348Z,12.00
2018-04-22T04:18:39.348Z,12.00
2018-04-22T04:19:39.339Z,16.00
2018-04-22T04:20:39.326Z,16.00
2018-04-22T04:21:39.316Z,16.00
2018-04-22T04:22:39.284Z,20.00
2018-04-22T04:23:39.269Z,24.00
2018-04-22T04:24:39.261Z,28.00
2018-04-22T04:25:39.264Z,28.00
2018-04-22T04:26:39.232Z,28.00
2018-04-22T04:27:39.238Z,32.00
2018-04-22T04:28:39.214Z,32.00
2018-04-22T04:29:39.195Z,36.00
2018-04-22T04:30:39.209Z,40.00
2018-04-22T04:31:39.170Z,40.00
2018-04-22T04:32:39.159Z,44.00
2018-04-22T04:33:39.144Z,48.00
2018-04-22T04:34:39.145Z,52.00
2018-04-22T04:35:39.122Z,52.00
2018-04-22T04:36:39.126Z,56.00
2018-04-22T04:37:39.113Z,60.00
2018-04-22T04:38:39.080Z,60.00
2018-04-22T04:39:39.090Z,68.00
2018-04-22T04:40:39.061Z,72.00
2018-04-22T04:41:39.062Z,76.00
2018-04-22T04:42:39.028Z,80.00
2018-04-22T04:43:39.032Z,84.00
2018-04-22T04:44:39.009Z,88.00
2018-04-22T04:45:39.000Z,92.00
2018-04-22T04:46:38.982Z,100.00
2018-04-22T04:47:38.984Z,104.00
2018-04-22T04:48:40.206Z,112.00
2018-04-22T04:49:38.961Z,112.00
2018-04-22T04:50:38.933Z,116.00
2018-04-22T04:51:38.920Z,120.00
2018-04-22T04:52:43.788Z,124.00
2018-04-22T04:53:47.911Z,132.00
2018-04-22T04:54:38.880Z,136.00
2018-04-22T04:56:03.325Z,140.00
2018-04-22T04:56:40.596Z,144.00
2018-04-22T04:58:05.975Z,152.00
2018-04-22T04:59:48.653Z,156.00
2018-04-22T05:00:55.279Z,160.00
2018-04-22T05:01:38.986Z,164.00
2018-04-22T05:02:38.786Z,172.00
2018-04-22T05:03:41.757Z,172.00
2018-04-22T05:04:38.763Z,172.00
2018-04-22T05:06:20.719Z,180.00
2018-04-22T05:09:56.191Z,204.00
2018-04-22T05:10:53.420Z,212.00
2018-04-22T05:12:26.102Z,220.00
2018-04-22T05:12:48.611Z,228.00
2018-04-22T05:13:53.911Z,236.00
2018-04-22T05:14:48.609Z,240.00
2018-04-22T05:15:48.580Z,248.00
2018-04-22T05:16:48.589Z,252.00
2018-04-22T05:18:27.422Z,256.00
2018-04-22T05:21:41.572Z,284.00
2018-04-22T05:23:40.131Z,300.00
2018-04-22T05:24:31.957Z,308.00
2018-04-22T05:25:31.942Z,316.00
2018-04-22T05:28:03.187Z,328.00
2018-04-22T05:29:39.457Z,340.00
2018-04-22T05:30:43.396Z,348.00
2018-04-22T05:32:36.866Z,360.00
2018-04-22T05:34:51.280Z,380.00
2018-04-22T05:35:31.836Z,384.00
2018-04-22T05:36:31.825Z,388.00
2018-04-22T05:37:31.791Z,392.00
2018-04-22T05:38:39.190Z,400.00
2018-04-22T05:39:34.184Z,412.00
2018-04-22T05:40:37.238Z,420.00
2018-04-22T05:41:31.751Z,424.00
2018-04-22T05:42:49.559Z,428.00
2018-04-22T05:44:22.947Z,440.00
2018-04-22T05:44:46.282Z,448.00
2018-04-22T05:45:33.841Z,472.00
2018-04-22T05:46:31.711Z,464.00
2018-04-22T05:51:46.447Z,496.00
2018-04-22T05:52:46.788Z,508.00
2018-04-22T05:53:50.561Z,516.00
2018-04-22T05:54:50.954Z,520.00
2018-04-22T05:55:46.346Z,528.00
2018-04-22T05:56:46.621Z,544.00
2018-04-22T05:57:46.322Z,548.00
2018-04-22T05:58:46.316Z,556.00
2018-04-22T05:59:46.299Z,564.00
2018-04-22T06:00:46.289Z,576.00
2018-04-22T06:01:46.290Z,576.00
2018-04-22T06:02:46.264Z,580.00
2018-04-22T06:03:46.270Z,584.00
2018-04-22T06:04:46.256Z,592.00
2018-04-22T06:05:46.229Z,592.00
2018-04-22T06:06:46.235Z,592.00
2018-04-22T06:07:46.209Z,616.00
2018-04-22T06:08:46.193Z,616.00
2018-04-22T06:09:46.186Z,624.00
2018-04-22T06:10:46.190Z,628.00
2018-04-22T06:11:46.164Z,644.00
2018-04-22T06:12:46.168Z,664.00
2018-04-22T06:13:46.147Z,684.00
2018-04-22T06:14:46.128Z,700.00
2018-04-22T06:15:46.132Z,716.00
2018-04-22T06:16:46.105Z,732.00
2018-04-22T06:17:46.093Z,752.00
2018-04-22T06:18:46.082Z,772.00
2018-04-22T06:19:46.069Z,788.00
2018-04-22T06:20:46.070Z,812.00
2018-04-22T06:21:46.048Z,816.00
2018-04-22T06:22:46.083Z,812.00
2018-04-22T06:23:46.032Z,808.00
2018-04-22T06:24:46.016Z,804.00
2018-04-22T06:25:46.019Z,816.00
2018-04-22T06:26:46.003Z,820.00
2018-04-22T06:27:45.999Z,836.00
2018-04-22T06:28:45.985Z,848.00
2018-04-22T06:29:45.958Z,852.00
2018-04-22T06:30:45.948Z,872.00
2018-04-22T06:31:45.961Z,868.00
2018-04-22T06:32:45.926Z,848.00
2018-04-22T06:33:45.908Z,856.00
2018-04-22T06:34:45.905Z,852.00
2018-04-22T06:35:45.889Z,864.00
2018-04-22T06:36:45.895Z,880.00
2018-04-22T06:37:45.871Z,892.00
2018-04-22T06:38:45.863Z,900.00
2018-04-22T06:39:45.853Z,900.00
2018-04-22T06:40:45.840Z,884.00
2018-04-22T06:41:45.829Z,868.00
2018-04-22T06:42:45.843Z,848.00
2018-04-22T06:43:45.802Z,824.00
2018-04-22T06:44:45.799Z,792.00
2018-04-22T06:45:45.791Z,788.00
2018-04-22T06:46:45.776Z,772.00
2018-04-22T06:47:45.760Z,780.00
2018-04-22T06:48:45.770Z,788.00
2018-04-22T06:49:45.736Z,788.00
2018-04-22T06:50:45.725Z,788.00
2018-04-22T06:51:45.722Z,784.00
2018-04-22T06:52:45.707Z,788.00
2018-04-22T06:53:45.709Z,780.00
2018-04-22T06:54:45.690Z,772.00
2018-04-22T06:55:45.673Z,780.00
2018-04-22T06:56:45.665Z,796.00
2018-04-22T06:57:45.651Z,776.00
2018-04-22T06:58:45.669Z,776.00
2018-04-22T06:59:45.662Z,792.00
2018-04-22T07:00:45.625Z,796.00
2018-04-22T07:01:45.631Z,832.00
2018-04-22T07:02:45.602Z,848.00
2018-04-22T07:03:46.598Z,888.00
2018-04-22T07:04:45.582Z,900.00
2018-04-22T07:05:45.580Z,928.00
2018-04-22T07:06:45.557Z,932.00
2018-04-22T07:07:45.549Z,940.00
2018-04-22T07:08:45.622Z,948.00
2018-04-22T07:09:45.526Z,968.00
2018-04-22T07:10:45.516Z,988.00
2018-04-22T07:11:45.522Z,1012.00
2018-04-22T07:12:45.501Z,1024.00
2018-04-22T07:13:45.485Z,1040.00
2018-04-22T07:14:45.476Z,1048.00
2018-04-22T07:15:45.462Z,1040.00
2018-04-22T07:16:45.532Z,1004.00
2018-04-22T07:17:45.438Z,1032.00
2018-04-22T07:18:45.431Z,1040.00
2018-04-22T07:19:45.420Z,1076.00
2018-04-22T07:20:45.408Z,1088.00
2018-04-22T07:21:45.400Z,1108.00
2018-04-22T07:22:45.405Z,1100.00
2018-04-22T07:23:45.390Z,1076.00
2018-04-22T07:24:45.380Z,1080.00
2018-04-22T07:25:45.357Z,1068.00
2018-04-22T07:26:45.344Z,1052.00
2018-04-22T07:27:45.364Z,1004.00
2018-04-22T07:28:45.320Z,1036.00
2018-04-22T07:29:45.322Z,1152.00
2018-04-22T07:30:45.303Z,1436.00
2018-04-22T07:31:45.290Z,1436.00
2018-04-22T07:32:45.293Z,1196.00
2018-04-22T07:33:45.306Z,1276.00
2018-04-22T07:34:45.262Z,1160.00
2018-04-22T07:35:45.255Z,1176.00
2018-04-22T07:36:45.236Z,1220.00
2018-04-22T07:37:46.097Z,1180.00
2018-04-22T07:38:45.282Z,1196.00
2018-04-22T07:39:45.227Z,1212.00
2018-04-22T07:40:45.209Z,1204.00
2018-04-22T07:41:45.194Z,1212.00
2018-04-22T07:42:45.180Z,1180.00
2018-04-22T07:43:45.228Z,1184.00
2018-04-22T07:44:45.174Z,1200.00
2018-04-22T07:45:45.148Z,1200.00
2018-04-22T07:46:45.140Z,1220.00
2018-04-22T07:47:45.128Z,1260.00
2018-04-22T07:48:45.120Z,1312.00
2018-04-22T07:49:45.123Z,1304.00
2018-04-22T07:50:45.097Z,1296.00
2018-04-22T07:51:45.089Z,1320.00
2018-04-22T07:52:45.093Z,1352.00
2018-04-22T07:53:45.068Z,1268.00
2018-04-22T07:54:45.075Z,1200.00
2018-04-22T07:55:45.051Z,1268.00
2018-04-22T07:56:45.035Z,1284.00
2018-04-22T07:57:45.107Z,1316.00
2018-04-22T07:58:45.019Z,1368.00
2018-04-22T07:59:45.005Z,1380.00
2018-04-22T08:00:45.011Z,1408.00
2018-04-22T08:01:44.991Z,1356.00
2018-04-22T08:02:44.979Z,1336.00
2018-04-22T08:03:44.968Z,1364.00
2018-04-22T08:04:44.956Z,1372.00
2018-04-22T08:05:44.986Z,1380.00
2018-04-22T08:06:44.993Z,1404.00
2018-04-22T08:07:44.938Z,1404.00
2018-04-22T08:08:44.919Z,1408.00
2018-04-22T08:09:44.907Z,1416.00
2018-04-22T08:10:44.914Z,1440.00
2018-04-22T08:11:44.892Z,1412.00
2018-04-22T08:12:44.879Z,1380.00
2018-04-22T08:13:44.865Z,1408.00
2018-04-22T08:14:44.861Z,1364.00
2018-04-22T08:15:44.850Z,1356.00
2018-04-22T08:16:44.857Z,1368.00
2018-04-22T08:17:44.832Z,1396.00
2018-04-22T08:18:44.825Z,1396.00
2018-04-22T08:19:44.810Z,1416.00
2018-04-22T08:20:44.802Z,1468.00
2018-04-22T08:21:44.813Z,1484.00
2018-04-22T08:22:51.567Z,1548.00
2018-04-22T08:23:44.773Z,1644.00
2018-04-22T08:24:44.765Z,1684.00
2018-04-22T08:25:44.757Z,1672.00
2018-04-22T08:26:44.746Z,1684.00
2018-04-22T08:27:44.756Z,1680.00
2018-04-22T08:28:44.727Z,1708.00
2018-04-22T08:29:44.718Z,1760.00
2018-04-22T08:30:44.710Z,1832.00
2018-04-22T08:31:44.715Z,1904.00
2018-04-22T08:32:44.687Z,1956.00
2018-04-22T08:33:44.698Z,1968.00
2018-04-22T08:34:44.671Z,1984.00
2018-04-22T08:35:44.663Z,1940.00
2018-04-22T08:36:44.659Z,1932.00
2018-04-22T08:37:51.830Z,2296.00
2018-04-22T08:38:44.649Z,2300.00
2018-04-22T08:39:44.640Z,2556.00
2018-04-22T08:40:44.621Z,2360.00
2018-04-22T08:41:44.631Z,3072.00
2018-04-22T08:42:44.601Z,3556.00
2018-04-22T08:43:44.606Z,3736.00
2018-04-22T08:44:44.601Z,3248.00
2018-04-22T08:45:44.578Z,3052.00
2018-04-22T08:46:44.585Z,3088.00
2018-04-22T08:47:44.559Z,2780.00
2018-04-22T08:48:44.548Z,2956.00
2018-04-22T08:49:44.555Z,4436.00
2018-04-22T08:50:44.551Z,3848.00
2018-04-22T08:51:44.525Z,4152.00
2018-04-22T08:52:44.506Z,3988.00
2018-04-22T08:53:44.521Z,4064.00
2018-04-22T08:54:44.495Z,4112.00
2018-04-22T08:55:44.493Z,4040.00
2018-04-22T08:56:44.508Z,3948.00
2018-04-22T08:57:44.470Z,5164.00
2018-04-22T08:58:44.484Z,5444.00
2018-04-22T08:59:44.449Z,5412.00
2018-04-22T09:00:44.449Z,5668.00
2018-04-22T09:01:44.435Z,4800.00
2018-04-22T09:02:44.432Z,3304.00
2018-04-22T09:03:44.437Z,2836.00
2018-04-22T09:04:44.427Z,2736.00
2018-04-22T09:05:44.420Z,2764.00
2018-04-22T09:06:44.392Z,2696.00
2018-04-22T09:07:44.390Z,2808.00
2018-04-22T09:08:44.382Z,3052.00
2018-04-22T09:09:44.387Z,3040.00
2018-04-22T09:10:44.365Z,3212.00
2018-04-22T09:11:44.358Z,3600.00
2018-04-22T09:12:44.344Z,3764.00
2018-04-22T09:13:44.338Z,3772.00
2018-04-22T09:14:44.350Z,3904.00
2018-04-22T09:15:44.322Z,3452.00
2018-04-22T09:16:44.321Z,4396.00
2018-04-22T09:17:44.326Z,5748.00
2018-04-22T09:18:44.333Z,6036.00
2018-04-22T09:19:44.301Z,11248.00
2018-04-22T09:20:44.291Z,24928.00
2018-04-22T09:21:44.277Z,21408.00
2018-04-22T09:22:44.268Z,21504.00
2018-04-22T09:23:44.270Z,22144.00
2018-04-22T09:24:44.275Z,25824.00
2018-04-22T09:25:44.269Z,26048.00
2018-04-22T09:26:44.260Z,26400.00
2018-04-22T09:27:44.241Z,26496.00
2018-04-22T09:28:44.235Z,26400.00
2018-04-22T09:29:44.241Z,26240.00
2018-04-22T09:30:44.235Z,26368.00
2018-04-22T09:31:44.227Z,26464.00
2018-04-22T09:32:44.208Z,25824.00
2018-04-22T09:33:44.202Z,22816.00
2018-04-22T09:34:44.211Z,23552.00
2018-04-22T09:35:44.208Z,23616.00
2018-04-22T09:36:44.190Z,24896.00
2018-04-22T09:37:44.187Z,23776.00
2018-04-22T09:38:44.180Z,23712.00
2018-04-22T09:39:44.178Z,23488.00
2018-04-22T09:40:44.191Z,24032.00
2018-04-22T09:41:44.170Z,23232.00
2018-04-22T09:42:44.161Z,20256.00
2018-04-22T09:43:44.179Z,18272.00
2018-04-22T09:44:44.169Z,18048.00
2018-04-22T09:45:44.670Z,16928.00
2018-04-22T09:46:44.171Z,15104.00
2018-04-22T09:47:44.228Z,13424.00
2018-04-22T09:48:44.151Z,13780.00
2018-04-22T09:49:44.159Z,16288.00
2018-04-22T09:50:44.148Z,16352.00
2018-04-22T09:51:44.163Z,18432.00
2018-04-22T09:52:44.193Z,21408.00
2018-04-22T09:53:44.140Z,20640.00
2018-04-22T09:54:44.147Z,21824.00
2018-04-22T09:55:44.183Z,21696.00
2018-04-22T09:56:44.136Z,23136.00
2018-04-22T09:57:44.204Z,24224.00
2018-04-22T09:58:44.140Z,24352.00
2018-04-22T09:59:44.125Z,24256.00
2018-04-22T10:00:44.134Z,21312.00
2018-04-22T10:01:44.121Z,22624.00
2018-04-22T10:02:44.131Z,21888.00
2018-04-22T10:03:44.135Z,22304.00
2018-04-22T10:04:44.120Z,22528.00
2018-04-22T10:05:44.112Z,23616.00
2018-04-22T10:06:44.117Z,21280.00
2018-04-22T10:07:44.114Z,17600.00
2018-04-22T10:08:44.124Z,18848.00
2018-04-22T10:09:44.108Z,12180.00
2018-04-22T10:10:44.106Z,10384.00
2018-04-22T10:11:44.102Z,20576.00
2018-04-22T10:12:44.117Z,18080.00
2018-04-22T10:13:44.117Z,19904.00
2018-04-22T10:14:44.103Z,22720.00
2018-04-22T10:15:44.113Z,17568.00
2018-04-22T10:16:44.099Z,23520.00
2018-04-22T10:17:44.117Z,24320.00
2018-04-22T10:18:44.097Z,21248.00
2018-04-22T10:19:44.113Z,17760.00
2018-04-22T10:20:44.094Z,19488.00
2018-04-22T10:21:44.097Z,20864.00
2018-04-22T10:22:44.093Z,7716.00
2018-04-22T10:23:44.090Z,9556.00
2018-04-22T10:24:44.094Z,18720.00
2018-04-22T10:25:44.103Z,10916.00
2018-04-22T10:26:44.093Z,16224.00
2018-04-22T10:27:44.124Z,16096.00
2018-04-22T10:28:44.081Z,17056.00
2018-04-22T10:29:44.081Z,11536.00
2018-04-22T10:30:44.080Z,16960.00
2018-04-22T10:31:44.097Z,17248.00
2018-04-22T10:32:44.080Z,17376.00
2018-04-22T10:33:44.074Z,16224.00
2018-04-22T10:34:44.104Z,16480.00
2018-04-22T10:35:44.070Z,17472.00
2018-04-22T10:36:44.083Z,18016.00
2018-04-22T10:37:44.067Z,17600.00
2018-04-22T10:38:44.067Z,18880.00
2018-04-22T10:39:44.067Z,14456.00
2018-04-22T10:40:44.064Z,14248.00
2018-04-22T10:41:44.061Z,14432.00
2018-04-22T10:42:44.081Z,12956.00
2018-04-22T10:43:44.061Z,11492.00
2018-04-22T10:44:44.060Z,14396.00
2018-04-22T10:45:44.064Z,13128.00
2018-04-22T10:46:44.124Z,10952.00
2018-04-22T10:47:44.050Z,9804.00
2018-04-22T10:48:44.054Z,8700.00
2018-04-22T10:49:44.049Z,5832.00
2018-04-22T10:50:44.048Z,3744.00
2018-04-22T10:51:44.048Z,2564.00
2018-04-22T10:52:44.061Z,1968.00
2018-04-22T10:53:44.048Z,1640.00
2018-04-22T10:54:44.041Z,1560.00
2018-04-22T10:55:44.039Z,1696.00
2018-04-22T10:56:44.037Z,1816.00
2018-04-22T10:57:44.044Z,1892.00
2018-04-22T10:58:44.037Z,2064.00
2018-04-22T10:59:44.030Z,2268.00
2018-04-22T11:00:44.025Z,2544.00
2018-04-22T11:01:44.040Z,3248.00
2018-04-22T11:02:44.036Z,6612.00
2018-04-22T11:03:44.019Z,10592.00
2018-04-22T11:04:44.008Z,11620.00
2018-04-22T11:05:44.009Z,9512.00
2018-04-22T11:06:44.027Z,16896.00
2018-04-22T11:07:44.001Z,20992.00
2018-04-22T11:08:44.000Z,23680.00
2018-04-22T11:09:43.993Z,20576.00
2018-04-22T11:10:43.988Z,15020.00
2018-04-22T11:11:44.027Z,15712.00
2018-04-22T11:12:43.997Z,17536.00
2018-04-22T11:13:43.983Z,18208.00
2018-04-22T11:14:43.978Z,19744.00
2018-04-22T11:15:43.975Z,18496.00
2018-04-22T11:16:43.970Z,21632.00
2018-04-22T11:17:43.989Z,22976.00
2018-04-22T11:18:43.972Z,20224.00
2018-04-22T11:19:43.986Z,20096.00
2018-04-22T11:20:43.985Z,16416.00
2018-04-22T11:21:43.966Z,16128.00
2018-04-22T11:22:43.967Z,15064.00
2018-04-22T11:23:43.970Z,20512.00
2018-04-22T11:24:43.967Z,25760.00
2018-04-22T11:25:43.987Z,24384.00
2018-04-22T11:26:43.969Z,23936.00
2018-04-22T11:27:43.972Z,23424.00
2018-04-22T11:28:43.967Z,23296.00
2018-04-22T11:29:43.970Z,22976.00
2018-04-22T11:30:43.987Z,23360.00
2018-04-22T11:31:43.973Z,23296.00
2018-04-22T11:32:43.971Z,23360.00
2018-04-22T11:33:43.992Z,23232.00
2018-04-22T11:34:43.974Z,23776.00
2018-04-22T11:35:43.981Z,23520.00
2018-04-22T11:36:43.996Z,22560.00
2018-04-22T11:37:43.983Z,23520.00
2018-04-22T11:38:43.980Z,22080.00
2018-04-22T11:39:43.993Z,22592.00
2018-04-22T11:40:44.007Z,22112.00
2018-04-22T11:41:43.993Z,22336.00
2018-04-22T11:42:43.995Z,22400.00
2018-04-22T11:43:43.998Z,22496.00
2018-04-22T11:44:44.002Z,22368.00
2018-04-22T11:45:44.021Z,23232.00
2018-04-22T11:46:44.007Z,23264.00
2018-04-22T11:47:44.027Z,23200.00
2018-04-22T11:48:44.028Z,28608.00
2018-04-22T11:49:44.015Z,25120.00
2018-04-22T11:50:44.021Z,23552.00
2018-04-22T11:51:44.043Z,23136.00
2018-04-22T11:52:44.025Z,22208.00
2018-04-22T11:53:44.032Z,22976.00
2018-04-22T11:54:44.036Z,22368.00
2018-04-22T11:55:44.039Z,21120.00
2018-04-22T11:56:44.060Z,18688.00
2018-04-22T11:57:44.048Z,18592.00
2018-04-22T11:58:44.065Z,18592.00
2018-04-22T11:59:44.074Z,17408.00
2018-04-22T12:00:44.061Z,16192.00
2018-04-22T12:01:44.064Z,14608.00
2018-04-22T12:02:44.069Z,12920.00
2018-04-22T12:03:44.096Z,13300.00
2018-04-22T12:04:44.079Z,13468.00
2018-04-22T12:05:44.085Z,12700.00
2018-04-22T12:06:44.093Z,12384.00
2018-04-22T12:07:44.090Z,11600.00
2018-04-22T12:08:44.115Z,10052.00
2018-04-22T12:09:44.098Z,5508.00
2018-04-22T12:10:44.105Z,4060.00
2018-04-22T12:11:44.106Z,3360.00
2018-04-22T12:12:44.117Z,3460.00
2018-04-22T12:13:44.131Z,3260.00
2018-04-22T12:14:44.188Z,3048.00
2018-04-22T12:15:44.123Z,2760.00
2018-04-22T12:16:44.121Z,2544.00
2018-04-22T12:17:44.124Z,2324.00
2018-04-22T12:18:44.121Z,2140.00
2018-04-22T12:20:08.006Z,1944.00
2018-04-22T12:20:44.131Z,1772.00
2018-04-22T12:21:44.134Z,1700.00
2018-04-22T12:22:44.126Z,1772.00
2018-04-22T12:23:44.132Z,1924.00
2018-04-22T12:24:44.128Z,2128.00
2018-04-22T12:25:44.147Z,2764.00
2018-04-22T12:26:44.126Z,3412.00
2018-04-22T12:27:44.125Z,5568.00
2018-04-22T12:28:44.120Z,6880.00
2018-04-22T12:29:44.123Z,5004.00
2018-04-22T12:30:44.137Z,6424.00
2018-04-22T12:31:44.116Z,5400.00
2018-04-22T12:32:44.116Z,11448.00
2018-04-22T12:33:44.113Z,11752.00
2018-04-22T12:34:44.113Z,13216.00
2018-04-22T12:35:44.119Z,12476.00
2018-04-22T12:36:44.120Z,12996.00
2018-04-22T12:37:44.104Z,12112.00
2018-04-22T12:38:44.104Z,11216.00
2018-04-22T12:39:44.107Z,11572.00
2018-04-22T12:40:44.109Z,4992.00
2018-04-22T12:41:44.124Z,3188.00
2018-04-22T12:42:44.119Z,2036.00
2018-04-22T12:43:44.107Z,1256.00
2018-04-22T12:44:44.118Z,916.00
2018-04-22T12:45:44.103Z,864.00
2018-04-22T12:46:44.106Z,932.00